createdAt,value
2018-10-07T00:01:23.940Z,13.60
2018-10-07T00:03:53.014Z,13.70
2018-10-07T00:06:26.576Z,13.80
2018-10-07T00:08:56.668Z,13.70
2018-10-07T00:11:25.871Z,13.70
2018-10-07T00:13:55.845Z,13.80
2018-10-07T00:16:24.921Z,13.80
2018-10-07T00:18:54.581Z,13.90
2018-10-07T00:21:23.680Z,13.80
2018-10-07T00:23:52.785Z,13.90
2018-10-07T00:26:21.887Z,13.90
2018-10-07T00:28:50.963Z,13.90
2018-10-07T00:31:20.043Z,14.00
2018-10-07T00:33:49.279Z,13.90
2018-10-07T00:36:18.471Z,13.90
2018-10-07T00:38:47.589Z,13.90
2018-10-07T00:41:16.697Z,13.80
2018-10-07T00:43:45.783Z,13.70
2018-10-07T00:46:14.884Z,13.80
2018-10-07T00:48:43.984Z,13.70
2018-10-07T00:51:13.062Z,13.70
2018-10-07T00:53:42.887Z,13.70
2018-10-07T00:56:12.014Z,13.60
2018-10-07T00:58:41.952Z,13.70
2018-10-07T01:01:11.059Z,13.70
2018-10-07T01:03:40.430Z,13.60
2018-10-07T01:06:09.548Z,13.60
2018-10-07T01:08:39.431Z,13.60
2018-10-07T01:11:08.572Z,13.50
2018-10-07T01:13:38.307Z,13.50
2018-10-07T01:16:07.482Z,13.40
2018-10-07T01:18:36.618Z,13.40
2018-10-07T01:21:05.796Z,13.50
2018-10-07T01:23:35.150Z,13.40
2018-10-07T01:26:04.320Z,13.50
2018-10-07T01:28:33.419Z,13.50
2018-10-07T01:31:03.514Z,13.30
2018-10-07T01:33:32.619Z,13.10
2018-10-07T01:36:01.702Z,13.10
2018-10-07T01:38:30.852Z,13.20
2018-10-07T01:40:59.976Z,13.30
2018-10-07T01:43:29.107Z,13.20
2018-10-07T01:45:58.698Z,13.30
2018-10-07T01:48:27.806Z,13.30
2018-10-07T01:50:56.937Z,13.40
2018-10-07T01:53:26.153Z,13.40
2018-10-07T01:55:55.297Z,13.40
2018-10-07T01:58:24.396Z,13.50
2018-10-07T02:00:53.500Z,13.50
2018-10-07T02:03:22.593Z,13.50
2018-10-07T02:05:51.680Z,13.40
2018-10-07T02:08:21.078Z,13.30
2018-10-07T02:10:50.194Z,13.40
2018-10-07T02:13:19.286Z,13.30
2018-10-07T02:15:48.789Z,13.30
2018-10-07T02:18:17.930Z,13.30
2018-10-07T02:20:47.981Z,13.40
2018-10-07T02:23:17.070Z,13.20
2018-10-07T02:25:46.169Z,13.30
2018-10-07T02:28:15.320Z,13.10
2018-10-07T02:30:44.408Z,13.00
2018-10-07T02:33:13.529Z,13.10
2018-10-07T02:35:42.651Z,13.00
2018-10-07T02:38:11.770Z,13.10
2018-10-07T02:40:42.179Z,13.00
2018-10-07T02:43:11.406Z,13.10
2018-10-07T02:45:40.540Z,13.10
2018-10-07T02:48:09.749Z,12.90
2018-10-07T02:50:40.028Z,12.90
2018-10-07T02:53:09.211Z,13.00
2018-10-07T02:55:38.451Z,12.90
2018-10-07T02:58:07.981Z,12.90
2018-10-07T03:00:37.110Z,12.80
2018-10-07T03:03:06.421Z,12.90
2018-10-07T03:05:35.600Z,12.90
2018-10-07T03:08:04.709Z,12.90
2018-10-07T03:10:33.817Z,12.90
2018-10-07T03:13:02.922Z,12.80
2018-10-07T03:15:32.044Z,12.70
2018-10-07T03:18:01.409Z,12.60
2018-10-07T03:20:31.464Z,12.50
2018-10-07T03:23:00.554Z,12.40
2018-10-07T03:25:29.692Z,12.40
2018-10-07T03:27:58.914Z,12.50
2018-10-07T03:30:27.989Z,12.60
2018-10-07T03:32:57.162Z,12.50
2018-10-07T03:35:26.248Z,12.50
2018-10-07T03:37:55.366Z,12.60
2018-10-07T03:40:24.453Z,12.60
2018-10-07T03:42:53.541Z,12.50
2018-10-07T03:45:23.369Z,12.50
2018-10-07T03:47:52.504Z,12.50
2018-10-07T03:50:21.622Z,12.50
2018-10-07T03:52:51.053Z,12.40
2018-10-07T03:55:20.116Z,12.40
2018-10-07T03:57:49.236Z,12.50
2018-10-07T04:00:18.382Z,12.40
2018-10-07T04:02:47.527Z,12.30
2018-10-07T04:05:16.677Z,12.20
2018-10-07T04:07:45.764Z,12.20
2018-10-07T04:10:14.871Z,12.10
2018-10-07T04:12:43.953Z,12.20
2018-10-07T04:15:13.049Z,12.20
2018-10-07T04:17:42.164Z,12.20
2018-10-07T04:20:12.057Z,12.20
2018-10-07T04:22:41.103Z,12.20
2018-10-07T04:25:10.291Z,12.30
2018-10-07T04:27:39.397Z,12.30
2018-10-07T04:30:08.534Z,12.30
2018-10-07T04:32:37.623Z,12.30
2018-10-07T04:35:06.690Z,12.30
2018-10-07T04:37:35.783Z,12.30
2018-10-07T04:40:05.040Z,12.30
2018-10-07T04:42:34.127Z,12.20
2018-10-07T04:45:03.293Z,12.20
2018-10-07T04:47:32.387Z,12.10
2018-10-07T04:50:01.499Z,12.20
2018-10-07T04:52:30.594Z,12.30
2018-10-07T04:54:59.693Z,12.30
2018-10-07T04:57:28.776Z,12.30
2018-10-07T04:59:57.915Z,12.30
2018-10-07T05:02:27.046Z,12.20
2018-10-07T05:04:57.810Z,12.10
2018-10-07T05:07:26.998Z,12.20
2018-10-07T05:10:07.120Z,12.20
2018-10-07T05:12:36.347Z,12.20
2018-10-07T05:15:06.981Z,12.30
2018-10-07T05:17:36.744Z,12.30
2018-10-07T05:20:06.042Z,12.40
2018-10-07T05:22:36.753Z,12.40
2018-10-07T05:25:05.904Z,12.40
2018-10-07T05:27:35.022Z,12.40
2018-10-07T05:30:04.226Z,12.40
2018-10-07T05:32:33.482Z,12.40
2018-10-07T05:35:02.550Z,12.20
2018-10-07T05:37:32.270Z,12.20
2018-10-07T05:40:01.367Z,12.10
2018-10-07T05:42:30.448Z,12.10
2018-10-07T05:44:59.604Z,12.10
2018-10-07T05:47:28.797Z,12.10
2018-10-07T05:49:57.865Z,12.10
2018-10-07T05:52:26.929Z,12.10
2018-10-07T05:54:56.071Z,12.20
2018-10-07T05:57:25.245Z,12.30
2018-10-07T05:59:54.407Z,12.40
2018-10-07T06:02:23.537Z,12.50
2018-10-07T06:04:54.081Z,12.50
2018-10-07T06:07:23.779Z,12.30
2018-10-07T06:09:52.927Z,12.30
2018-10-07T06:12:22.019Z,12.10
2018-10-07T06:15:02.289Z,12.20
2018-10-07T06:17:31.351Z,12.30
2018-10-07T06:20:00.458Z,12.40
2018-10-07T06:22:29.604Z,12.40
2018-10-07T06:24:58.907Z,12.50
2018-10-07T06:27:28.058Z,12.50
2018-10-07T06:29:57.204Z,12.40
2018-10-07T06:32:26.259Z,12.30
2018-10-07T06:34:55.412Z,12.00
2018-10-07T06:37:24.528Z,11.70
2018-10-07T06:39:53.698Z,11.80
2018-10-07T06:42:22.884Z,11.90
2018-10-07T06:44:51.988Z,11.90
2018-10-07T06:47:21.055Z,12.10
2018-10-07T06:49:50.154Z,12.10
2018-10-07T06:52:19.322Z,12.30
2018-10-07T06:54:48.422Z,12.30
2018-10-07T06:57:17.550Z,12.30
2018-10-07T06:59:47.663Z,12.20
2018-10-07T07:02:16.765Z,12.30
2018-10-07T07:04:46.765Z,12.50
2018-10-07T07:07:15.855Z,12.60
2018-10-07T07:09:44.925Z,12.80
2018-10-07T07:12:14.009Z,13.00
2018-10-07T07:14:43.122Z,13.10
2018-10-07T07:17:12.897Z,13.10
2018-10-07T07:19:42.014Z,13.20
2018-10-07T07:22:11.091Z,13.30
2018-10-07T07:24:40.178Z,13.40
2018-10-07T07:27:09.418Z,13.50
2018-10-07T07:29:38.489Z,13.60
2018-10-07T07:32:07.585Z,13.70
2018-10-07T07:34:36.649Z,13.60
2018-10-07T07:37:05.784Z,13.80
2018-10-07T07:39:34.856Z,13.80
2018-10-07T07:42:03.948Z,13.90
2018-10-07T07:44:33.028Z,13.90
2018-10-07T07:47:02.118Z,14.00
2018-10-07T07:49:31.238Z,14.10
2018-10-07T07:52:00.351Z,14.10
2018-10-07T07:54:29.954Z,14.30
2018-10-07T07:56:59.056Z,14.40
2018-10-07T07:59:28.458Z,14.40
2018-10-07T08:01:57.541Z,14.40
2018-10-07T08:04:27.358Z,14.40
2018-10-07T08:06:56.499Z,14.60
2018-10-07T08:09:25.561Z,14.80
2018-10-07T08:11:54.703Z,15.00
2018-10-07T08:14:23.793Z,15.10
2018-10-07T08:16:52.892Z,15.30
2018-10-07T08:19:21.959Z,15.50
2018-10-07T08:21:51.039Z,15.50
2018-10-07T08:24:20.134Z,15.60
2018-10-07T08:26:49.293Z,15.80
2018-10-07T08:29:18.835Z,15.90
2018-10-07T08:31:47.948Z,16.00
2018-10-07T08:34:17.049Z,16.20
2018-10-07T08:36:46.139Z,16.20
2018-10-07T08:39:15.253Z,16.40
2018-10-07T08:41:44.373Z,16.40
2018-10-07T08:44:13.461Z,16.60
2018-10-07T08:46:42.537Z,16.80
2018-10-07T08:49:11.635Z,17.00
2018-10-07T08:51:40.713Z,17.30
2018-10-07T08:54:09.925Z,17.50
2018-10-07T08:56:39.014Z,17.50
2018-10-07T08:59:08.107Z,17.60
2018-10-07T09:01:37.192Z,17.90
2018-10-07T09:04:06.499Z,18.10
2018-10-07T09:06:35.769Z,18.20
2018-10-07T09:09:07.373Z,18.10
2018-10-07T09:11:36.477Z,18.30
2018-10-07T09:14:05.620Z,18.40
2018-10-07T09:16:34.700Z,18.50
2018-10-07T09:19:03.878Z,18.50
2018-10-07T09:21:32.976Z,18.50
2018-10-07T09:24:02.071Z,18.40
2018-10-07T09:26:31.161Z,18.70
2018-10-07T09:29:00.282Z,18.90
2018-10-07T09:31:29.577Z,18.80
2018-10-07T09:33:58.693Z,19.00
2018-10-07T09:36:27.767Z,18.90
2018-10-07T09:38:56.846Z,18.80
2018-10-07T09:41:26.049Z,19.00
2018-10-07T09:43:55.126Z,19.20
2018-10-07T09:46:24.337Z,19.30
2018-10-07T09:48:53.517Z,19.40
2018-10-07T09:51:22.585Z,19.20
2018-10-07T09:53:51.722Z,19.40
2018-10-07T09:56:20.819Z,19.40
2018-10-07T09:58:49.893Z,19.70
2018-10-07T10:01:20.071Z,19.70
2018-10-07T10:03:49.010Z,19.80
2018-10-07T10:06:18.127Z,19.50
2018-10-07T10:08:47.207Z,19.40
2018-10-07T10:11:16.375Z,19.80
2018-10-07T10:13:45.407Z,20.10
2018-10-07T10:16:14.505Z,20.10
2018-10-07T10:18:48.438Z,20.30
2018-10-07T10:21:33.330Z,19.70
2018-10-07T10:24:07.335Z,20.50
2018-10-07T10:26:41.926Z,20.70
2018-10-07T10:29:29.480Z,20.90
2018-10-07T10:32:05.319Z,21.30
2018-10-07T10:36:44.594Z,21.50
2018-10-07T10:40:04.634Z,22.00
2018-10-07T10:44:42.456Z,22.20
2018-10-07T10:47:19.649Z,22.60
2018-10-07T10:49:54.157Z,22.90
2018-10-07T10:52:31.964Z,24.00
2018-10-07T10:55:37.593Z,24.90
2018-10-07T10:58:10.092Z,25.70
2018-10-07T11:00:43.579Z,27.20
2018-10-07T11:03:39.377Z,28.90
2018-10-07T11:06:20.088Z,28.60
2018-10-07T11:09:57.462Z,28.30
2018-10-07T11:12:34.443Z,28.30
2018-10-07T11:15:18.074Z,28.80
2018-10-07T11:18:01.021Z,27.90
2018-10-07T11:22:45.943Z,28.20
2018-10-07T11:25:42.117Z,29.60
2018-10-07T11:28:21.475Z,30.00
2018-10-07T11:30:56.498Z,31.70
2018-10-07T11:34:02.960Z,33.10
2018-10-07T11:37:12.693Z,32.30
2018-10-07T11:39:51.613Z,32.90
2018-10-07T11:42:31.581Z,32.80
2018-10-07T11:45:09.131Z,31.50
2018-10-07T11:48:01.905Z,31.90
2018-10-07T11:50:40.477Z,31.80
2018-10-07T11:53:20.571Z,31.20
2018-10-07T11:55:49.660Z,29.60
2018-10-07T11:58:18.741Z,29.90
2018-10-07T12:00:47.869Z,29.30
2018-10-07T12:03:17.511Z,30.30
2018-10-07T12:05:46.620Z,30.60
2018-10-07T12:08:15.770Z,29.70
2018-10-07T12:10:44.942Z,28.20
2018-10-07T12:13:14.645Z,28.90
2018-10-07T12:15:43.773Z,30.70
2018-10-07T12:18:13.245Z,30.60
2018-10-07T12:20:42.350Z,31.20
2018-10-07T12:23:11.608Z,31.10
2018-10-07T12:25:40.756Z,29.20
2018-10-07T12:28:10.249Z,30.40
2018-10-07T12:30:39.352Z,31.30
2018-10-07T12:33:08.520Z,32.40
2018-10-07T12:35:37.805Z,33.60
2018-10-07T12:38:06.923Z,34.20
2018-10-07T12:40:36.022Z,34.70
2018-10-07T12:43:05.139Z,35.00
2018-10-07T12:45:34.263Z,35.60
2018-10-07T12:48:03.473Z,35.20
2018-10-07T12:50:32.612Z,34.60
2018-10-07T12:53:03.407Z,34.10
2018-10-07T12:55:32.602Z,32.80
2018-10-07T12:58:01.771Z,32.90
2018-10-07T13:00:30.997Z,32.30
2018-10-07T13:03:00.353Z,31.50
2018-10-07T13:05:29.614Z,30.70
2018-10-07T13:07:58.783Z,30.20
2018-10-07T13:10:27.966Z,29.80
2018-10-07T13:12:57.105Z,29.40
2018-10-07T13:15:26.189Z,30.10
2018-10-07T13:17:55.285Z,29.70
2018-10-07T13:20:24.372Z,31.20
2018-10-07T13:22:53.719Z,32.70
2018-10-07T13:25:22.841Z,33.20
2018-10-07T13:27:52.737Z,31.90
2018-10-07T13:30:21.797Z,32.30
2018-10-07T13:32:50.940Z,32.70
2018-10-07T13:35:20.035Z,33.50
2018-10-07T13:37:49.315Z,33.50
2018-10-07T13:40:18.440Z,34.40
2018-10-07T13:42:47.523Z,35.00
2018-10-07T13:45:16.636Z,36.00
2018-10-07T13:47:45.765Z,35.80
2018-10-07T13:50:14.923Z,34.60
2018-10-07T13:52:44.760Z,34.80
2018-10-07T13:55:13.853Z,36.10
2018-10-07T13:57:42.979Z,36.60
2018-10-07T14:00:12.139Z,35.70
2018-10-07T14:02:41.253Z,36.30
2018-10-07T14:05:11.175Z,36.60
2018-10-07T14:07:40.433Z,35.80
2018-10-07T14:10:09.583Z,35.60
2018-10-07T14:12:38.781Z,35.80
2018-10-07T14:15:08.161Z,35.30
2018-10-07T14:17:37.281Z,35.10
2018-10-07T14:20:06.408Z,34.40
2018-10-07T14:22:35.513Z,35.50
2018-10-07T14:25:04.736Z,35.90
2018-10-07T14:27:34.488Z,36.70
2018-10-07T14:30:03.730Z,37.20
2018-10-07T14:32:33.285Z,37.30
2018-10-07T14:35:02.630Z,37.50
2018-10-07T14:37:31.785Z,37.40
2018-10-07T14:40:01.023Z,37.40
2018-10-07T14:42:30.310Z,36.30
2018-10-07T14:44:59.675Z,35.90
2018-10-07T14:47:28.877Z,35.10
2018-10-07T14:49:58.681Z,35.30
2018-10-07T14:52:28.013Z,35.40
2018-10-07T14:54:57.674Z,35.50
2018-10-07T14:57:26.797Z,35.60
2018-10-07T14:59:55.937Z,35.40
2018-10-07T15:02:25.036Z,35.10
2018-10-07T15:04:54.464Z,35.10
2018-10-07T15:07:23.631Z,34.90
2018-10-07T15:09:52.708Z,35.40
2018-10-07T15:12:21.869Z,35.30
2018-10-07T15:14:51.022Z,35.00
2018-10-07T15:17:20.592Z,34.70
2018-10-07T15:19:49.853Z,34.60
2018-10-07T15:22:19.056Z,34.80
2018-10-07T15:24:49.417Z,34.60
2018-10-07T15:27:19.884Z,34.10
2018-10-07T15:29:48.934Z,34.00
2018-10-07T15:32:18.011Z,33.40
2018-10-07T15:34:47.116Z,33.20
2018-10-07T15:37:16.161Z,32.60
2018-10-07T15:39:45.290Z,31.40
2018-10-07T15:42:14.482Z,30.80
2018-10-07T15:44:43.593Z,30.60
2018-10-07T15:47:12.672Z,30.90
2018-10-07T15:49:41.781Z,31.00
2018-10-07T15:52:10.826Z,31.60
2018-10-07T15:54:39.949Z,31.30
2018-10-07T15:57:09.102Z,31.30
2018-10-07T15:59:38.169Z,30.30
2018-10-07T16:02:07.297Z,29.70
2018-10-07T16:04:36.411Z,29.20
2018-10-07T16:07:05.503Z,28.70
2018-10-07T16:09:34.611Z,28.20
2018-10-07T16:12:03.783Z,27.80
2018-10-07T16:14:32.852Z,27.60
2018-10-07T16:17:01.913Z,27.10
2018-10-07T16:19:31.139Z,26.40
2018-10-07T16:22:00.221Z,26.20
2018-10-07T16:24:29.316Z,26.10
2018-10-07T16:26:58.373Z,26.10
2018-10-07T16:29:27.477Z,25.80
2018-10-07T16:31:56.583Z,25.90
2018-10-07T16:34:25.668Z,25.60
2018-10-07T16:36:54.784Z,25.70
2018-10-07T16:39:23.899Z,25.60
2018-10-07T16:41:52.953Z,25.10
2018-10-07T16:44:22.181Z,24.80
2018-10-07T16:46:51.302Z,24.50
2018-10-07T16:49:20.459Z,24.00
2018-10-07T16:51:49.505Z,23.80
2018-10-07T16:54:18.635Z,23.20
2018-10-07T16:56:47.787Z,23.00
2018-10-07T16:59:16.863Z,22.80
2018-10-07T17:01:45.994Z,22.30
2018-10-07T17:04:15.059Z,22.00
2018-10-07T17:06:44.159Z,21.80
2018-10-07T17:09:13.255Z,21.00
2018-10-07T17:11:42.375Z,21.00
2018-10-07T17:14:11.507Z,21.10
2018-10-07T17:16:40.596Z,21.10
2018-10-07T17:19:09.705Z,21.10
2018-10-07T17:21:38.793Z,21.00
2018-10-07T17:24:07.855Z,21.00
2018-10-07T17:26:37.089Z,20.80
2018-10-07T17:29:06.559Z,20.80
2018-10-07T17:31:36.047Z,20.70
2018-10-07T17:34:05.127Z,20.70
2018-10-07T17:36:34.239Z,20.50
2018-10-07T17:39:03.532Z,20.40
2018-10-07T17:41:32.633Z,20.50
2018-10-07T17:44:01.738Z,20.30
2018-10-07T17:46:31.045Z,20.20
2018-10-07T17:49:00.251Z,20.10
2018-10-07T17:51:29.273Z,19.80
2018-10-07T17:53:58.383Z,19.70
2018-10-07T17:56:27.445Z,19.60
2018-10-07T17:58:56.545Z,19.60
2018-10-07T18:01:25.713Z,19.60
2018-10-07T18:03:55.820Z,19.40
2018-10-07T18:06:24.885Z,19.50
2018-10-07T18:08:53.982Z,19.50
2018-10-07T18:11:23.040Z,19.40
2018-10-07T18:13:52.114Z,19.20
2018-10-07T18:16:21.291Z,19.20
2018-10-07T18:18:50.393Z,19.10
2018-10-07T18:21:19.577Z,19.20
2018-10-07T18:23:48.561Z,19.20
2018-10-07T18:26:17.665Z,19.20
2018-10-07T18:28:46.780Z,19.10
2018-10-07T18:31:15.861Z,19.10
2018-10-07T18:33:45.161Z,18.90
2018-10-07T18:36:14.267Z,18.90
2018-10-07T18:38:43.358Z,18.90
2018-10-07T18:41:13.142Z,18.90
2018-10-07T18:43:42.357Z,18.70
2018-10-07T18:46:11.925Z,18.50
2018-10-07T18:48:41.136Z,18.50
2018-10-07T18:51:10.211Z,18.40
2018-10-07T18:53:39.320Z,18.20
2018-10-07T18:56:08.453Z,18.30
2018-10-07T18:58:37.608Z,18.10
2018-10-07T19:01:06.897Z,18.20
2018-10-07T19:03:36.235Z,18.10
2018-10-07T19:06:05.315Z,18.30
2018-10-07T19:08:34.700Z,18.30
2018-10-07T19:11:03.645Z,18.30
2018-10-07T19:13:32.830Z,18.30
2018-10-07T19:16:01.934Z,18.20
2018-10-07T19:18:31.027Z,18.20
2018-10-07T19:21:00.172Z,18.30
2018-10-07T19:23:29.258Z,18.30
2018-10-07T19:25:58.369Z,18.30
2018-10-07T19:28:27.523Z,18.30
2018-10-07T19:30:56.661Z,18.30
2018-10-07T19:33:25.729Z,18.20
2018-10-07T19:35:54.938Z,18.30
2018-10-07T19:38:24.055Z,18.20
2018-10-07T19:40:53.186Z,18.10
2018-10-07T19:43:22.325Z,18.10
2018-10-07T19:45:51.798Z,18.10
2018-10-07T19:48:20.945Z,18.20
2018-10-07T19:50:50.227Z,18.00
2018-10-07T19:53:19.429Z,17.80
2018-10-07T19:55:48.530Z,17.80
2018-10-07T19:58:18.584Z,17.70
2018-10-07T20:00:47.658Z,17.70
2018-10-07T20:03:16.805Z,17.60
2018-10-07T20:05:45.993Z,17.50
2018-10-07T20:08:15.337Z,17.20
2018-10-07T20:10:44.511Z,16.90
2018-10-07T20:13:13.644Z,17.00
2018-10-07T20:15:42.733Z,17.00
2018-10-07T20:18:12.159Z,17.10
2018-10-07T20:20:41.590Z,17.10
2018-10-07T20:23:10.775Z,17.20
2018-10-07T20:25:39.903Z,17.20
2018-10-07T20:28:09.067Z,17.30
2018-10-07T20:30:38.457Z,17.30
2018-10-07T20:33:07.803Z,17.30
2018-10-07T20:35:36.951Z,17.40
2018-10-07T20:38:06.419Z,17.40
2018-10-07T20:40:35.881Z,17.40
2018-10-07T20:43:05.051Z,17.40
2018-10-07T20:45:34.122Z,17.40
2018-10-07T20:48:03.277Z,17.50
2018-10-07T20:50:32.392Z,17.60
2018-10-07T20:53:01.846Z,17.50
2018-10-07T20:55:31.499Z,17.30
2018-10-07T20:58:00.677Z,17.30
2018-10-07T21:00:29.753Z,17.40
2018-10-07T21:02:59.644Z,17.20
2018-10-07T21:05:28.757Z,17.30
2018-10-07T21:07:57.821Z,17.30
2018-10-07T21:10:26.922Z,17.30
2018-10-07T21:12:56.051Z,17.20
2018-10-07T21:15:25.194Z,17.20
2018-10-07T21:17:54.313Z,17.20
2018-10-07T21:20:23.377Z,17.10
2018-10-07T21:22:52.596Z,17.20
2018-10-07T21:25:22.609Z,17.10
2018-10-07T21:27:51.712Z,17.10
2018-10-07T21:30:20.801Z,17.00
2018-10-07T21:32:49.896Z,16.90
2018-10-07T21:35:18.974Z,17.00
2018-10-07T21:37:48.053Z,17.10
2018-10-07T21:40:17.186Z,17.00
2018-10-07T21:42:46.240Z,17.10
2018-10-07T21:45:15.293Z,17.00
2018-10-07T21:47:44.406Z,17.00
2018-10-07T21:50:13.454Z,16.90
2018-10-07T21:52:42.540Z,17.10
2018-10-07T21:55:12.111Z,16.90
2018-10-07T21:57:41.325Z,17.00
2018-10-07T22:00:10.745Z,17.10
2018-10-07T22:02:39.865Z,17.10
2018-10-07T22:05:09.483Z,16.90
2018-10-07T22:07:38.586Z,16.80
2018-10-07T22:10:07.737Z,16.50
2018-10-07T22:12:36.810Z,16.60
2018-10-07T22:15:05.935Z,16.60
2018-10-07T22:17:35.001Z,16.70
2018-10-07T22:20:04.222Z,16.70
2018-10-07T22:22:33.352Z,16.70
2018-10-07T22:25:02.429Z,16.70
2018-10-07T22:27:31.553Z,16.70
2018-10-07T22:30:00.630Z,16.70
2018-10-07T22:32:30.420Z,16.60
2018-10-07T22:34:59.495Z,16.80
2018-10-07T22:37:28.586Z,16.80
2018-10-07T22:39:57.664Z,16.70
2018-10-07T22:42:26.781Z,16.70
2018-10-07T22:44:55.899Z,16.70
2018-10-07T22:47:24.967Z,16.70
2018-10-07T22:49:54.989Z,16.70
2018-10-07T22:52:24.465Z,16.70
2018-10-07T22:54:53.556Z,16.60
2018-10-07T22:57:23.464Z,16.60
2018-10-07T22:59:52.559Z,16.60
2018-10-07T23:02:21.715Z,16.50
2018-10-07T23:04:50.794Z,16.50
2018-10-07T23:07:19.953Z,16.40
2018-10-07T23:09:49.021Z,16.40
2018-10-07T23:12:18.104Z,16.20
2018-10-07T23:14:47.240Z,16.20
2018-10-07T23:17:16.365Z,16.30
2018-10-07T23:19:45.682Z,16.30
2018-10-07T23:22:14.785Z,16.30
2018-10-07T23:24:43.926Z,16.30
2018-10-07T23:27:13.002Z,16.20
2018-10-07T23:29:42.122Z,16.20
2018-10-07T23:32:11.228Z,16.10
2018-10-07T23:34:40.325Z,16.10
2018-10-07T23:37:09.398Z,16.10
2018-10-07T23:39:38.532Z,16.00
2018-10-07T23:42:07.766Z,15.90
2018-10-07T23:44:36.855Z,15.80
2018-10-07T23:47:05.982Z,15.70
2018-10-07T23:49:35.044Z,15.80
2018-10-07T23:52:04.225Z,15.70
2018-10-07T23:54:33.218Z,15.80
2018-10-07T23:57:02.322Z,15.50
2018-10-07T23:59:31.806Z,15.60
